Time;durP1;ratioP1;P1;durP2;ratioP2;P2;SDS_P1;SDS_P2;PMS_P1;PMS_P2;Temp;Humidity;BMP_temperature;BMP_pressure;BME280_temperature;BME280_humidity;BME280_pressure;Samples;Min_cycle;Max_cycle;Signal;HPM_P1;HPM_P2
2023/07/22 00:01:54;;;;;;;2.60;2.40;;;23.80;79.50;;;;;;5063056;28;20468;-62
2023/07/22 00:04:20;;;;;;;2.70;2.50;;;23.80;79.60;;;;;;5059704;28;20471;-60
2023/07/22 00:06:47;;;;;;;2.73;2.20;;;23.80;79.60;;;;;;5050745;28;20463;-62
2023/07/22 00:09:14;;;;;;;2.50;2.30;;;23.80;79.60;;;;;;5051219;28;20849;-60
2023/07/22 00:11:42;;;;;;;2.60;2.40;;;23.80;79.70;;;;;;5054176;28;20508;-62
2023/07/22 00:14:09;;;;;;;2.67;2.47;;;23.80;79.70;;;;;;5048869;28;20994;-60
2023/07/22 00:16:36;;;;;;;2.63;2.43;;;23.80;79.60;;;;;;5055906;28;20454;-63
2023/07/22 00:19:03;;;;;;;2.83;2.63;;;23.80;79.70;;;;;;5054837;28;20468;-60
2023/07/22 00:21:29;;;;;;;2.30;2.10;;;23.80;79.60;;;;;;5059200;28;20566;-62
2023/07/22 00:23:56;;;;;;;2.80;2.50;;;23.80;79.60;;;;;;5062964;28;20934;-61
2023/07/22 00:26:23;;;;;;;2.50;2.30;;;23.80;79.80;;;;;;5062702;28;20463;-62
2023/07/22 00:28:51;;;;;;;2.60;2.40;;;23.80;79.80;;;;;;5055972;28;20458;-62
2023/07/22 00:31:17;;;;;;;2.43;2.23;;;23.80;80.50;;;;;;5059965;28;20826;-62
2023/07/22 00:33:44;;;;;;;3.40;2.83;;;23.80;79.80;;;;;;5059126;28;20459;-63
2023/07/22 00:36:11;;;;;;;2.50;2.30;;;23.80;79.80;;;;;;5060406;28;20474;-62
2023/07/22 00:38:38;;;;;;;2.73;2.53;;;23.80;79.70;;;;;;5058712;28;21264;-62
2023/07/22 00:41:07;;;;;;;2.80;2.60;;;23.70;79.70;;;;;;5056237;28;20482;-60
2023/07/22 00:43:33;;;;;;;3.50;3.20;;;23.70;79.70;;;;;;5060377;28;20568;-60
2023/07/22 00:46:02;;;;;;;2.60;2.40;;;23.70;79.80;;;;;;5060584;28;20467;-62
2023/07/22 00:48:28;;;;;;;2.50;2.30;;;23.70;79.80;;;;;;5053129;28;20819;-62
2023/07/22 00:50:55;;;;;;;3.40;2.60;;;23.70;79.80;;;;;;5053333;28;20464;-61
2023/07/22 00:53:22;;;;;;;2.50;2.30;;;23.70;79.90;;;;;;5053570;28;20466;-61
2023/07/22 00:55:49;;;;;;;3.60;2.63;;;23.70;79.90;;;;;;5051688;28;20456;-62
2023/07/22 00:58:16;;;;;;;2.77;2.57;;;23.70;80.00;;;;;;5052119;28;21195;-62
2023/07/22 01:00:43;;;;;;;2.97;2.77;;;23.60;79.90;;;;;;5064837;28;20453;-60
2023/07/22 01:03:11;;;;;;;2.63;2.43;;;23.60;79.90;;;;;;5058512;28;22187;-60
2023/07/22 01:05:37;;;;;;;2.53;2.33;;;23.60;79.90;;;;;;5051289;28;20459;-62
2023/07/22 01:08:05;;;;;;;3.10;2.37;;;23.60;79.90;;;;;;5057942;28;21094;-62
2023/07/22 01:10:31;;;;;;;3.13;2.93;;;23.60;79.90;;;;;;5052671;28;20471;-62
2023/07/22 01:12:58;;;;;;;2.53;2.33;;;23.60;80.00;;;;;;5050756;28;20462;-62
2023/07/22 01:15:26;;;;;;;2.37;2.07;;;23.60;79.90;;;;;;5060129;28;21251;-61
2023/07/22 01:17:55;;;;;;;3.17;2.30;;;23.60;80.00;;;;;;5060620;28;20461;-61
2023/07/22 01:20:24;;;;;;;2.60;2.40;;;23.60;80.00;;;;;;5053856;28;20466;-62
2023/07/22 01:22:53;;;;;;;3.10;2.80;;;23.60;79.90;;;;;;5058563;28;20479;-62
2023/07/22 01:25:22;;;;;;;2.80;2.60;;;23.60;80.00;;;;;;5062895;28;21377;-60
2023/07/22 01:27:49;;;;;;;2.70;2.50;;;23.60;80.10;;;;;;5060186;28;20460;-61
2023/07/22 01:30:15;;;;;;;2.67;2.47;;;23.60;80.00;;;;;;5055433;28;20470;-60
2023/07/22 01:32:42;;;;;;;2.80;2.60;;;23.60;80.10;;;;;;5060380;28;20467;-61
2023/07/22 01:35:10;;;;;;;2.60;2.40;;;23.60;80.30;;;;;;5063818;28;20487;-60
2023/07/22 01:37:37;;;;;;;2.77;2.57;;;23.60;80.20;;;;;;5065739;28;20459;-60
2023/07/22 01:40:11;;;;;;;2.20;2.10;;;23.50;80.10;;;;;;5057146;28;20470;-59
2023/07/22 01:42:38;;;;;;;2.40;2.13;;;23.50;80.20;;;;;;5056101;28;20482;-60
2023/07/22 01:45:07;;;;;;;2.70;2.50;;;23.50;80.30;;;;;;5057782;28;20451;-60
2023/07/22 01:47:34;;;;;;;3.70;3.40;;;23.50;80.30;;;;;;5060906;28;20463;-62
2023/07/22 01:50:01;;;;;;;2.80;2.60;;;23.50;80.30;;;;;;5050821;28;20455;-60
2023/07/22 01:52:27;;;;;;;2.70;2.50;;;23.50;80.30;;;;;;5059302;28;20463;-60
2023/07/22 01:54:54;;;;;;;2.63;2.43;;;23.50;80.30;;;;;;5054731;28;20467;-60
2023/07/22 01:57:22;;;;;;;3.40;3.10;;;23.50;80.30;;;;;;5059501;28;23735;-61
2023/07/22 01:59:49;;;;;;;3.53;3.23;;;23.50;80.30;;;;;;5058585;28;21230;-61
2023/07/22 02:02:16;;;;;;;3.27;2.97;;;23.50;80.30;;;;;;5061640;27;20483;-61
2023/07/22 02:04:42;;;;;;;3.40;3.20;;;23.50;80.30;;;;;;5059917;28;21630;-61
2023/07/22 02:07:09;;;;;;;2.87;2.67;;;23.50;80.40;;;;;;5051357;28;20467;-60
2023/07/22 02:09:36;;;;;;;2.53;2.33;;;23.50;80.40;;;;;;5053595;28;20459;-60
2023/07/22 02:12:03;;;;;;;2.53;2.33;;;23.50;80.40;;;;;;5049838;28;20464;-62
2023/07/22 02:14:31;;;;;;;2.97;2.77;;;23.50;80.40;;;;;;5049300;28;20462;-61
2023/07/22 02:16:58;;;;;;;3.03;2.83;;;23.50;80.40;;;;;;5059398;28;20967;-60
2023/07/22 02:19:25;;;;;;;3.10;2.90;;;23.50;80.50;;;;;;5053558;28;20495;-60
2023/07/22 02:21:51;;;;;;;2.70;2.50;;;23.40;80.40;;;;;;5051814;28;20480;-60
2023/07/22 02:24:18;;;;;;;3.03;2.83;;;23.40;80.40;;;;;;5055127;28;20464;-60
2023/07/22 02:26:45;;;;;;;2.73;2.53;;;23.40;80.50;;;;;;5052014;28;20462;-61
2023/07/22 02:29:12;;;;;;;3.10;2.83;;;23.40;80.40;;;;;;5049886;28;20455;-60
2023/07/22 02:31:41;;;;;;;2.97;2.77;;;23.40;80.40;;;;;;5047388;28;22591;-60
2023/07/22 02:34:07;;;;;;;3.03;2.83;;;23.40;80.50;;;;;;5053816;28;20996;-60
2023/07/22 02:36:34;;;;;;;3.00;2.50;;;23.40;80.50;;;;;;5059727;28;23303;-61
2023/07/22 02:39:01;;;;;;;2.97;2.77;;;23.40;80.50;;;;;;5053855;28;20906;-60
2023/07/22 02:41:27;;;;;;;3.00;2.80;;;23.40;80.50;;;;;;5050952;28;20460;-61
2023/07/22 02:43:54;;;;;;;3.13;2.93;;;23.40;80.60;;;;;;5047778;28;20514;-59
2023/07/22 02:46:21;;;;;;;2.80;2.60;;;23.40;80.40;;;;;;5053613;28;20474;-61
2023/07/22 02:48:49;;;;;;;3.20;2.60;;;23.40;80.60;;;;;;5053453;28;20462;-59
2023/07/22 02:51:16;;;;;;;2.97;2.77;;;23.40;80.60;;;;;;5054500;28;20466;-59
2023/07/22 02:53:44;;;;;;;3.00;2.80;;;23.40;80.50;;;;;;5055470;28;21859;-59
2023/07/22 02:56:11;;;;;;;3.00;2.80;;;23.40;80.50;;;;;;5052540;28;20459;-60
2023/07/22 02:58:37;;;;;;;2.73;2.53;;;23.40;80.50;;;;;;5052553;28;20452;-61
2023/07/22 03:01:05;;;;;;;3.20;3.00;;;23.40;80.60;;;;;;5052395;28;20463;-60
2023/07/22 03:03:32;;;;;;;3.20;2.90;;;23.40;80.50;;;;;;5057856;28;20621;-59
2023/07/22 03:06:01;;;;;;;3.43;3.23;;;23.40;80.50;;;;;;5060793;28;20458;-60
2023/07/22 03:08:27;;;;;;;2.97;2.67;;;23.30;80.50;;;;;;5053024;28;20468;-61
2023/07/22 03:10:54;;;;;;;3.17;2.97;;;23.30;80.40;;;;;;5050319;28;20466;-60
2023/07/22 03:13:21;;;;;;;2.87;2.67;;;23.40;80.60;;;;;;5049851;28;20466;-61
2023/07/22 03:15:48;;;;;;;2.87;2.67;;;23.30;80.50;;;;;;5051763;28;20460;-60
2023/07/22 03:18:14;;;;;;;3.20;2.90;;;23.40;80.60;;;;;;5054626;28;20468;-60
2023/07/22 03:20:41;;;;;;;3.40;3.20;;;23.30;80.50;;;;;;5059994;28;20466;-61
2023/07/22 03:23:09;;;;;;;2.83;2.63;;;23.30;80.50;;;;;;5061442;28;20992;-59
2023/07/22 03:25:36;;;;;;;3.70;3.30;;;23.30;80.50;;;;;;5053619;28;20463;-60
2023/07/22 03:28:05;;;;;;;2.90;2.70;;;23.30;80.40;;;;;;5054644;28;20470;-60
2023/07/22 03:30:32;;;;;;;3.37;3.17;;;23.30;80.60;;;;;;5058169;28;20789;-60
2023/07/22 03:32:58;;;;;;;3.50;3.20;;;23.30;80.60;;;;;;5057131;28;20557;-60
2023/07/22 03:35:25;;;;;;;3.13;2.93;;;23.30;80.60;;;;;;5066065;28;20938;-60
2023/07/22 03:37:52;;;;;;;3.07;2.87;;;23.30;80.60;;;;;;5054717;28;20751;-60
2023/07/22 03:40:20;;;;;;;2.70;2.50;;;23.30;80.60;;;;;;5051750;28;20471;-60
2023/07/22 03:42:47;;;;;;;3.83;2.87;;;23.30;81.50;;;;;;5049587;28;20487;-60
2023/07/22 03:45:14;;;;;;;3.30;2.80;;;23.30;80.70;;;;;;5057413;28;20466;-61
2023/07/22 03:47:41;;;;;;;2.87;2.67;;;23.30;80.90;;;;;;5061945;28;21649;-60
2023/07/22 03:50:09;;;;;;;2.93;2.73;;;23.30;80.90;;;;;;5052913;28;21913;-60
2023/07/22 03:52:35;;;;;;;3.20;3.00;;;23.30;80.10;;;;;;5053999;27;20735;-59
2023/07/22 03:55:02;;;;;;;3.00;2.80;;;23.30;80.70;;;;;;5054980;28;20770;-60
2023/07/22 03:57:30;;;;;;;3.27;3.00;;;23.30;80.80;;;;;;5059226;28;20796;-61
2023/07/22 03:59:57;;;;;;;2.90;2.67;;;23.20;80.70;;;;;;5059250;28;20462;-60
2023/07/22 04:02:25;;;;;;;3.00;2.80;;;23.20;80.70;;;;;;5058219;28;20471;-60
2023/07/22 04:04:52;;;;;;;4.70;3.20;;;23.20;80.70;;;;;;5060507;28;21127;-60
2023/07/22 04:07:18;;;;;;;3.87;3.57;;;23.30;80.70;;;;;;5061286;28;20463;-60
2023/07/22 04:09:46;;;;;;;3.10;2.87;;;23.30;80.70;;;;;;5052218;28;20973;-59
2023/07/22 04:12:12;;;;;;;3.63;3.33;;;23.20;80.70;;;;;;5054040;28;20455;-60
2023/07/22 04:14:41;;;;;;;3.17;2.90;;;23.20;80.80;;;;;;5060150;28;20459;-60
2023/07/22 04:17:08;;;;;;;3.37;3.10;;;23.20;80.80;;;;;;5059679;28;20462;-61
2023/07/22 04:19:35;;;;;;;3.87;3.57;;;23.20;80.80;;;;;;5057955;28;20463;-61
2023/07/22 04:22:04;;;;;;;3.20;3.00;;;23.20;80.90;;;;;;5053952;28;20460;-60
2023/07/22 04:24:30;;;;;;;3.17;2.97;;;23.20;80.80;;;;;;5056845;28;22567;-60
2023/07/22 04:26:57;;;;;;;2.83;2.63;;;23.20;80.90;;;;;;5058167;28;20447;-61
2023/07/22 04:29:24;;;;;;;3.70;2.90;;;23.20;81.00;;;;;;5062590;28;20536;-60
2023/07/22 04:31:52;;;;;;;3.53;3.23;;;23.20;80.90;;;;;;5058421;28;20458;-59
2023/07/22 04:34:19;;;;;;;2.93;2.73;;;23.20;80.90;;;;;;5056510;28;20455;-60
2023/07/22 04:36:46;;;;;;;3.63;3.33;;;23.20;80.90;;;;;;5059673;28;20479;-60
2023/07/22 04:39:13;;;;;;;3.50;3.20;;;23.20;81.00;;;;;;5061337;28;20470;-61
2023/07/22 04:41:40;;;;;;;3.70;3.07;;;23.20;81.00;;;;;;5062785;28;20492;-59
2023/07/22 04:44:06;;;;;;;4.00;3.60;;;23.20;80.90;;;;;;5058263;28;20482;-60
2023/07/22 04:46:33;;;;;;;3.47;3.17;;;23.20;80.90;;;;;;5059846;28;20459;-59
2023/07/22 04:49:02;;;;;;;3.60;3.30;;;23.20;80.90;;;;;;5059933;28;20493;-61
2023/07/22 04:51:29;;;;;;;3.33;3.03;;;23.20;81.00;;;;;;5052681;28;21100;-60
2023/07/22 04:53:55;;;;;;;3.13;2.90;;;23.20;81.00;;;;;;5061410;28;20459;-60
2023/07/22 04:56:22;;;;;;;3.30;3.00;;;23.20;81.00;;;;;;5061801;28;20488;-60
2023/07/22 04:58:49;;;;;;;3.43;3.23;;;23.20;81.10;;;;;;5059197;27;21203;-60
2023/07/22 05:01:16;;;;;;;3.13;2.87;;;23.20;81.00;;;;;;5050781;28;20592;-59
2023/07/22 05:03:43;;;;;;;3.10;2.90;;;23.20;81.00;;;;;;5059756;28;20479;-61
2023/07/22 05:06:11;;;;;;;3.30;3.00;;;23.10;80.80;;;;;;5063286;28;21046;-61
2023/07/22 05:08:38;;;;;;;3.43;3.13;;;23.10;80.90;;;;;;5054509;28;20978;-60
2023/07/22 05:11:05;;;;;;;3.63;3.33;;;23.10;81.00;;;;;;5060665;28;20468;-60
2023/07/22 05:13:32;;;;;;;3.07;2.87;;;23.10;80.90;;;;;;5063712;28;20522;-59
2023/07/22 05:15:58;;;;;;;4.63;3.07;;;23.10;80.90;;;;;;5057881;28;20454;-60
2023/07/22 05:18:25;;;;;;;3.10;2.90;;;23.10;80.90;;;;;;5057932;28;20538;-59
2023/07/22 05:20:52;;;;;;;4.17;3.87;;;23.10;80.90;;;;;;5054313;28;20820;-60
2023/07/22 05:23:20;;;;;;;3.40;3.10;;;23.10;80.70;;;;;;5060550;28;20489;-60
2023/07/22 05:25:51;;;;;;;4.80;3.07;;;23.10;81.60;;;;;;5059403;28;20478;-60
2023/07/22 05:28:18;;;;;;;3.40;3.13;;;23.10;80.90;;;;;;5058469;28;20460;-60
2023/07/22 05:30:45;;;;;;;4.20;3.50;;;23.10;80.70;;;;;;5056225;28;20455;-59
2023/07/22 05:33:12;;;;;;;3.90;3.30;;;23.10;80.80;;;;;;5057682;28;20463;-61
2023/07/22 05:35:39;;;;;;;3.90;3.60;;;23.10;80.80;;;;;;5054652;28;20495;-60
2023/07/22 05:38:05;;;;;;;3.33;3.13;;;23.10;80.90;;;;;;5056664;28;20461;-60
2023/07/22 05:40:33;;;;;;;4.17;3.87;;;23.10;80.60;;;;;;5058420;28;20490;-60
2023/07/22 05:43:00;;;;;;;4.47;4.07;;;23.10;80.80;;;;;;5052464;28;20480;-60
2023/07/22 05:45:27;;;;;;;3.47;3.20;;;23.10;80.80;;;;;;5051762;28;20819;-59
2023/07/22 05:47:54;;;;;;;4.37;3.97;;;23.10;80.80;;;;;;5052339;28;20464;-61
2023/07/22 05:50:20;;;;;;;3.53;3.23;;;23.10;80.80;;;;;;5056241;28;21127;-60
2023/07/22 05:52:47;;;;;;;3.53;3.23;;;23.10;80.70;;;;;;5049545;28;20478;-61
2023/07/22 05:55:14;;;;;;;4.27;3.90;;;23.10;80.70;;;;;;5051060;28;20462;-59
2023/07/22 05:57:43;;;;;;;4.40;4.00;;;23.10;80.80;;;;;;5060191;28;20556;-61
2023/07/22 06:00:12;;;;;;;3.60;3.30;;;23.10;80.70;;;;;;5063100;28;20557;-61
2023/07/22 06:02:39;;;;;;;4.30;3.90;;;23.10;80.80;;;;;;5052965;28;20475;-60
2023/07/22 06:05:06;;;;;;;4.10;3.80;;;23.10;80.70;;;;;;5059714;28;20529;-61
2023/07/22 06:07:33;;;;;;;4.00;3.70;;;23.10;80.70;;;;;;5056652;27;20455;-61
2023/07/22 06:10:00;;;;;;;4.10;3.80;;;23.10;80.70;;;;;;5063135;28;20990;-61
2023/07/22 06:12:26;;;;;;;3.63;3.33;;;23.10;80.70;;;;;;5058408;28;20463;-60
2023/07/22 06:14:54;;;;;;;4.00;3.67;;;23.10;80.70;;;;;;5057881;28;20857;-61
2023/07/22 06:17:21;;;;;;;3.40;3.10;;;23.10;80.60;;;;;;5059309;28;20470;-62
2023/07/22 06:19:48;;;;;;;4.50;4.10;;;23.10;80.70;;;;;;5056189;28;21123;-62
2023/07/22 06:22:14;;;;;;;4.50;4.17;;;23.10;80.70;;;;;;5053415;28;20812;-60
2023/07/22 06:24:41;;;;;;;3.50;3.23;;;23.10;80.60;;;;;;5060702;28;20498;-61
2023/07/22 06:27:08;;;;;;;4.30;4.00;;;23.10;80.60;;;;;;5051624;28;21562;-60
2023/07/22 06:29:35;;;;;;;3.63;3.07;;;23.10;80.70;;;;;;5051514;28;21788;-60
2023/07/22 06:32:03;;;;;;;4.37;4.07;;;23.10;80.70;;;;;;5059074;28;20460;-59
2023/07/22 06:34:30;;;;;;;4.87;4.47;;;23.00;80.70;;;;;;5060318;28;20455;-60
2023/07/22 06:36:56;;;;;;;4.00;3.70;;;23.00;80.70;;;;;;5063747;27;20482;-61
2023/07/22 06:39:23;;;;;;;5.37;4.87;;;23.10;80.70;;;;;;5058278;28;21082;-61
2023/07/22 06:41:50;;;;;;;4.63;4.33;;;23.00;80.60;;;;;;5057381;28;20460;-59
2023/07/22 06:44:16;;;;;;;4.77;4.37;;;23.10;80.70;;;;;;5056013;28;20484;-60
2023/07/22 06:46:44;;;;;;;4.80;4.40;;;23.00;81.30;;;;;;5051519;28;21444;-62
2023/07/22 06:49:12;;;;;;;4.40;4.00;;;23.00;80.60;;;;;;5063870;28;20491;-61
2023/07/22 06:51:39;;;;;;;4.47;4.07;;;23.10;80.70;;;;;;5049849;28;20456;-60
2023/07/22 06:54:06;;;;;;;4.90;4.50;;;23.00;80.50;;;;;;5054738;28;20462;-60
2023/07/22 06:56:33;;;;;;;4.50;4.10;;;23.00;80.40;;;;;;5055126;28;20647;-61
2023/07/22 06:59:00;;;;;;;4.23;3.90;;;23.00;80.40;;;;;;5065946;28;21057;-61
2023/07/22 07:01:27;;;;;;;4.37;4.07;;;23.00;80.40;;;;;;5063140;28;20465;-60
2023/07/22 07:03:53;;;;;;;4.13;3.83;;;23.00;80.40;;;;;;5066131;28;21062;-60
2023/07/22 07:06:21;;;;;;;4.27;3.97;;;23.00;80.40;;;;;;5056452;28;20460;-61
2023/07/22 07:08:48;;;;;;;4.23;3.90;;;23.00;80.60;;;;;;5062309;28;20459;-60
2023/07/22 07:11:15;;;;;;;4.30;3.90;;;23.00;80.50;;;;;;5059998;28;20510;-59
2023/07/22 07:13:42;;;;;;;3.87;3.30;;;23.00;80.40;;;;;;5055409;28;20464;-61
2023/07/22 07:16:22;;;;;;;4.20;3.90;;;23.00;80.40;;;;;;5049679;28;21078;-60
2023/07/22 07:18:49;;;;;;;5.10;4.70;;;23.00;80.50;;;;;;5058496;28;20855;-59
2023/07/22 07:21:16;;;;;;;5.57;5.10;;;23.00;80.60;;;;;;5053382;28;20482;-61
2023/07/22 07:23:44;;;;;;;4.03;3.73;;;23.00;80.40;;;;;;5055351;28;20476;-61
2023/07/22 07:26:10;;;;;;;4.83;4.43;;;23.00;80.50;;;;;;5060435;28;20463;-61
2023/07/22 07:28:37;;;;;;;4.93;4.53;;;23.00;80.40;;;;;;5051475;28;20458;-61
2023/07/22 07:31:04;;;;;;;4.67;4.27;;;23.00;80.40;;;;;;5055825;28;20468;-61
2023/07/22 07:33:31;;;;;;;4.33;3.93;;;23.00;80.50;;;;;;5053499;28;20721;-61
2023/07/22 07:35:57;;;;;;;4.40;4.03;;;23.00;80.40;;;;;;5052920;28;20486;-62
2023/07/22 07:38:24;;;;;;;4.33;3.93;;;23.00;80.40;;;;;;5052166;28;20462;-64
2023/07/22 07:40:54;;;;;;;5.73;5.23;;;23.00;80.60;;;;;;5049460;28;20463;-61
2023/07/22 07:43:21;;;;;;;5.10;4.70;;;23.00;80.50;;;;;;5046991;28;20989;-63
2023/07/22 07:45:47;;;;;;;5.40;5.00;;;23.00;80.20;;;;;;5048548;28;20459;-61
2023/07/22 07:48:14;;;;;;;5.40;4.93;;;23.00;80.00;;;;;;5055038;28;20468;-63
2023/07/22 07:50:41;;;;;;;6.90;6.27;;;23.00;79.80;;;;;;5054493;28;21014;-63
2023/07/22 07:53:08;;;;;;;8.50;6.77;;;22.90;79.50;;;;;;5051748;28;20472;-61
2023/07/22 07:55:34;;;;;;;6.60;6.00;;;22.90;79.20;;;;;;5075375;28;20542;-62
2023/07/22 07:58:02;;;;;;;7.93;6.70;;;22.90;79.10;;;;;;5075575;28;20459;-60
2023/07/22 08:00:29;;;;;;;7.13;6.43;;;22.90;78.70;;;;;;5072397;28;20455;-61
2023/07/22 08:02:56;;;;;;;8.70;7.20;;;22.90;78.40;;;;;;5077382;28;21076;-61
2023/07/22 08:05:22;;;;;;;7.20;6.57;;;22.90;78.10;;;;;;5072969;28;20476;-60
2023/07/22 08:07:49;;;;;;;5.57;5.07;;;22.90;77.90;;;;;;5074968;28;20467;-60
2023/07/22 08:10:16;;;;;;;6.67;6.07;;;22.80;77.70;;;;;;5077408;28;20459;-61
2023/07/22 08:12:42;;;;;;;6.77;6.17;;;22.80;78.10;;;;;;5078831;28;20455;-60
2023/07/22 08:15:11;;;;;;;7.70;5.77;;;22.90;78.40;;;;;;5081865;28;20462;-60
2023/07/22 08:17:37;;;;;;;6.93;5.83;;;22.90;78.40;;;;;;5080424;28;20989;-60
2023/07/22 08:20:06;;;;;;;6.80;6.20;;;22.90;78.40;;;;;;5079409;28;20494;-60
2023/07/22 08:22:33;;;;;;;6.37;5.77;;;22.90;78.50;;;;;;5087571;28;20954;-60
2023/07/22 08:25:00;;;;;;;6.30;5.80;;;22.90;78.70;;;;;;5076145;28;20574;-60
2023/07/22 08:27:26;;;;;;;10.87;6.70;;;22.90;79.70;;;;;;5078284;28;20977;-60
2023/07/22 08:29:53;;;;;;;7.10;6.00;;;22.90;78.90;;;;;;5080881;28;20872;-60
2023/07/22 08:32:21;;;;;;;6.20;5.60;;;22.90;78.90;;;;;;5084007;28;20458;-60
2023/07/22 08:34:48;;;;;;;6.50;5.83;;;22.90;79.80;;;;;;5090237;28;20478;-60
2023/07/22 08:37:15;;;;;;;7.80;6.97;;;22.90;78.90;;;;;;5081474;28;20462;-60
2023/07/22 08:39:41;;;;;;;6.40;5.80;;;22.90;79.00;;;;;;5090375;28;20454;-60
2023/07/22 08:42:09;;;;;;;8.87;5.60;;;22.90;79.10;;;;;;5086462;28;20470;-60
2023/07/22 08:44:41;;;;;;;10.70;5.27;;;22.90;79.00;;;;;;5080481;27;20479;-60
2023/07/22 08:47:12;;;;;;;6.40;5.80;;;22.90;79.10;;;;;;5077871;27;21335;-60
2023/07/22 08:49:41;;;;;;;5.47;4.97;;;22.90;79.00;;;;;;5078553;28;20495;-60
2023/07/22 08:52:08;;;;;;;6.20;5.70;;;22.90;78.90;;;;;;5079017;28;20832;-60
2023/07/22 08:54:36;;;;;;;8.30;6.13;;;22.90;79.00;;;;;;5081253;28;20456;-60
2023/07/22 08:57:03;;;;;;;6.60;6.10;;;22.90;79.00;;;;;;5076572;28;20681;-60
2023/07/22 08:59:30;;;;;;;7.10;6.50;;;22.90;79.00;;;;;;5077753;27;21064;-60
2023/07/22 09:01:57;;;;;;;6.30;5.70;;;22.90;78.80;;;;;;5077634;28;20464;-60
2023/07/22 09:04:24;;;;;;;6.93;5.30;;;22.90;78.70;;;;;;5081306;28;20562;-60
2023/07/22 09:06:53;;;;;;;7.83;6.70;;;22.90;78.60;;;;;;5078994;28;20455;-60
2023/07/22 09:09:20;;;;;;;5.93;5.30;;;22.90;78.40;;;;;;5082639;28;20459;-60
2023/07/22 09:11:47;;;;;;;8.03;6.20;;;22.90;78.30;;;;;;5083284;28;20465;-60
2023/07/22 09:14:14;;;;;;;8.37;6.90;;;22.90;78.30;;;;;;5083203;28;20793;-61
2023/07/22 09:16:42;;;;;;;6.93;6.23;;;22.90;78.10;;;;;;5080861;28;20474;-60
2023/07/22 09:19:09;;;;;;;6.30;5.80;;;22.90;78.00;;;;;;5079888;28;20459;-60
2023/07/22 09:21:36;;;;;;;8.17;6.63;;;23.00;78.00;;;;;;5079638;28;20538;-60
2023/07/22 09:24:21;;;;;;;6.63;5.93;;;22.90;77.70;;;;;;5078944;28;20578;-61
2023/07/22 09:26:48;;;;;;;6.57;5.97;;;22.90;77.60;;;;;;5079488;28;20479;-60
2023/07/22 09:29:15;;;;;;;6.20;5.60;;;22.90;77.50;;;;;;5081619;28;20954;-60
2023/07/22 09:31:50;;;;;;;6.70;6.10;;;22.90;77.40;;;;;;5078922;28;20471;-60
2023/07/22 09:34:17;;;;;;;5.83;5.30;;;22.90;77.20;;;;;;5079766;28;20452;-60
2023/07/22 09:36:54;;;;;;;7.00;6.37;;;22.90;77.30;;;;;;5077702;28;20479;-60
2023/07/22 09:39:23;;;;;;;7.30;6.67;;;22.90;77.30;;;;;;5078593;28;20525;-60
2023/07/22 09:41:52;;;;;;;6.67;6.07;;;22.90;77.20;;;;;;5078619;28;20459;-60
2023/07/22 09:44:19;;;;;;;7.23;6.53;;;22.90;77.30;;;;;;5073650;28;20492;-60
2023/07/22 09:46:48;;;;;;;6.30;5.80;;;23.00;77.20;;;;;;5077085;28;20456;-60
2023/07/22 09:49:17;;;;;;;6.10;5.40;;;22.90;76.90;;;;;;5079057;28;20456;-60
2023/07/22 09:51:44;;;;;;;6.80;6.20;;;22.90;77.00;;;;;;5080848;28;20459;-60
2023/07/22 09:54:11;;;;;;;7.97;7.23;;;22.90;76.90;;;;;;5081192;28;20462;-60
2023/07/22 09:56:47;;;;;;;5.43;4.93;;;22.90;76.80;;;;;;5083020;28;20466;-60
2023/07/22 09:59:14;;;;;;;6.70;6.10;;;22.90;76.80;;;;;;5083375;28;20471;-60
2023/07/22 10:01:42;;;;;;;6.70;5.30;;;22.90;77.00;;;;;;5081107;28;20461;-60
2023/07/22 10:04:11;;;;;;;6.40;5.43;;;23.00;77.20;;;;;;5082776;28;20942;-60
2023/07/22 10:06:39;;;;;;;6.67;6.07;;;23.00;77.30;;;;;;5080165;28;20580;-60
2023/07/22 10:09:07;;;;;;;7.40;5.87;;;23.00;77.30;;;;;;5077606;28;20456;-60
2023/07/22 10:11:35;;;;;;;6.57;5.90;;;23.00;77.30;;;;;;5084508;27;20459;-60
2023/07/22 10:14:04;;;;;;;6.17;5.57;;;23.00;77.30;;;;;;5086781;28;20447;-60
2023/07/22 10:16:31;;;;;;;6.93;6.27;;;23.00;77.40;;;;;;5082091;28;20456;-60
2023/07/22 10:19:00;;;;;;;6.43;5.77;;;23.00;77.40;;;;;;5075792;28;20455;-62
2023/07/22 10:21:29;;;;;;;5.10;4.70;;;23.00;77.60;;;;;;5079200;28;20474;-65
2023/07/22 10:23:56;;;;;;;5.60;5.10;;;23.00;77.60;;;;;;5080771;28;20602;-63
2023/07/22 10:26:23;;;;;;;5.70;5.30;;;23.00;77.70;;;;;;5083004;27;20716;-60
2023/07/22 10:28:50;;;;;;;5.80;5.20;;;23.00;77.60;;;;;;5089866;27;20463;-58
2023/07/22 10:31:18;;;;;;;5.90;5.37;;;23.10;77.50;;;;;;5082381;27;20466;-53
2023/07/22 10:33:46;;;;;;;6.20;5.60;;;23.10;77.50;;;;;;5081765;28;20551;-56
2023/07/22 10:36:15;;;;;;;6.47;5.93;;;23.10;77.20;;;;;;5087184;28;20903;-60
2023/07/22 10:38:42;;;;;;;6.00;5.50;;;23.10;77.30;;;;;;5088205;28;20781;-62
2023/07/22 10:41:13;;;;;;;6.13;5.53;;;23.10;76.90;;;;;;5091462;28;20537;-59
2023/07/22 10:43:40;;;;;;;6.53;5.50;;;23.10;77.20;;;;;;5094603;28;20443;-55
2023/07/22 10:46:10;;;;;;;6.00;5.40;;;23.20;77.50;;;;;;5087020;28;20737;-57
2023/07/22 10:48:41;;;;;;;5.10;4.70;;;23.20;77.70;;;;;;5078214;28;20800;-58
2023/07/22 10:51:10;;;;;;;5.53;5.10;;;23.20;77.70;;;;;;5086389;28;20467;-56
2023/07/22 10:53:42;;;;;;;5.47;4.97;;;23.20;77.80;;;;;;5092050;28;20482;-63
2023/07/22 10:56:14;;;;;;;5.27;4.87;;;23.30;77.90;;;;;;5084267;28;20594;-50
2023/07/22 10:58:58;;;;;;;6.63;5.30;;;23.30;77.40;;;;;;5083769;28;20455;-59
2023/07/22 11:01:31;;;;;;;5.43;4.93;;;23.30;77.50;;;;;;5084824;28;20467;-53
2023/07/22 11:04:11;;;;;;;4.97;4.53;;;23.30;77.50;;;;;;5090667;28;20474;-71
2023/07/22 11:06:40;;;;;;;5.27;4.87;;;23.30;77.70;;;;;;5092768;28;20907;-58
2023/07/22 11:09:07;;;;;;;5.73;5.23;;;23.30;77.80;;;;;;5093548;28;20434;-60
2023/07/22 11:11:38;;;;;;;6.20;4.63;;;23.40;77.80;;;;;;5088885;28;21097;-52
2023/07/22 11:14:21;;;;;;;5.53;4.73;;;23.40;77.90;;;;;;5087328;28;20455;-58
2023/07/22 11:16:48;;;;;;;6.10;5.60;;;23.40;77.90;;;;;;5085106;28;20460;-62
2023/07/22 11:19:18;;;;;;;5.37;4.67;;;23.40;77.90;;;;;;5084318;28;20977;-71
2023/07/22 11:21:46;;;;;;;5.00;4.60;;;23.40;78.10;;;;;;5083807;28;20452;-64
2023/07/22 11:24:13;;;;;;;4.90;4.33;;;23.50;78.40;;;;;;5086823;28;20492;-63
2023/07/22 11:26:41;;;;;;;8.20;5.03;;;23.50;78.40;;;;;;5080679;28;20475;-71
2023/07/22 11:29:08;;;;;;;4.60;4.20;;;23.50;78.40;;;;;;5085871;28;21503;-67
2023/07/22 11:31:37;;;;;;;9.23;5.10;;;23.50;78.40;;;;;;5086758;28;20466;-70
2023/07/22 11:34:04;;;;;;;6.17;5.60;;;23.60;79.40;;;;;;5082103;28;21038;-67
2023/07/22 11:36:32;;;;;;;4.70;4.30;;;23.60;79.40;;;;;;5082806;28;20491;-62
2023/07/22 11:39:03;;;;;;;10.30;5.07;;;23.60;78.80;;;;;;5085146;28;20946;-64
2023/07/22 11:41:30;;;;;;;5.10;4.60;;;23.60;78.80;;;;;;5087917;28;20466;-66
2023/07/22 11:43:58;;;;;;;4.73;4.33;;;23.70;79.10;;;;;;5087229;28;20463;-64
2023/07/22 11:46:25;;;;;;;8.07;4.63;;;23.70;79.00;;;;;;5085532;28;20566;-63
2023/07/22 11:48:52;;;;;;;4.80;4.40;;;23.70;78.30;;;;;;5083351;28;20461;-64
2023/07/22 11:51:20;;;;;;;6.07;5.07;;;23.70;78.00;;;;;;5086916;28;20475;-63
2023/07/22 11:53:50;;;;;;;4.23;3.90;;;23.70;77.50;;;;;;5084379;28;20448;-62
2023/07/22 11:56:20;;;;;;;5.07;4.60;;;23.70;77.00;;;;;;5085038;28;20484;-63
2023/07/22 11:58:50;;;;;;;4.80;4.23;;;23.70;77.00;;;;;;5087455;28;20542;-65
2023/07/22 12:01:17;;;;;;;5.73;5.17;;;23.70;76.50;;;;;;5085859;28;20556;-66
2023/07/22 12:03:44;;;;;;;3.93;3.53;;;23.70;76.20;;;;;;5089041;28;20461;-62
2023/07/22 12:06:11;;;;;;;4.87;4.47;;;23.70;76.00;;;;;;5090006;28;20798;-65
2023/07/22 12:08:43;;;;;;;5.70;4.93;;;23.70;75.70;;;;;;5091048;28;20463;-63
2023/07/22 12:11:17;;;;;;;4.83;4.43;;;23.70;75.50;;;;;;5088345;28;20516;-66
2023/07/22 12:13:46;;;;;;;4.83;4.40;;;23.70;75.50;;;;;;5089268;27;20459;-64
2023/07/22 12:16:13;;;;;;;4.60;3.90;;;23.70;75.20;;;;;;5086532;28;20461;-65
2023/07/22 12:18:43;;;;;;;5.00;3.80;;;23.70;74.80;;;;;;5088092;28;20467;-63
2023/07/22 12:21:10;;;;;;;4.70;4.30;;;23.80;74.70;;;;;;5089254;28;20486;-64
2023/07/22 12:23:38;;;;;;;3.50;3.20;;;23.80;74.60;;;;;;5088682;28;20900;-60
2023/07/22 12:26:05;;;;;;;4.10;3.60;;;23.80;74.50;;;;;;5083365;28;20488;-67
2023/07/22 12:28:33;;;;;;;3.67;3.10;;;23.80;74.30;;;;;;5083517;28;20467;-66
2023/07/22 12:31:00;;;;;;;4.53;3.60;;;23.80;74.10;;;;;;5089722;28;20960;-51
2023/07/22 12:33:27;;;;;;;6.53;3.30;;;23.80;73.90;;;;;;5088309;28;20457;-60
2023/07/22 12:35:54;;;;;;;3.90;3.50;;;23.80;73.60;;;;;;5086105;28;20923;-59
2023/07/22 12:38:21;;;;;;;4.33;3.50;;;23.80;73.50;;;;;;5082466;28;20537;-62
2023/07/22 12:40:48;;;;;;;3.70;3.40;;;23.80;73.70;;;;;;5087371;28;20452;-58
2023/07/22 12:43:14;;;;;;;3.90;3.50;;;23.80;73.10;;;;;;5082539;28;21010;-63
2023/07/22 12:45:43;;;;;;;3.53;3.23;;;23.80;73.20;;;;;;5085761;28;20638;-57
2023/07/22 12:48:10;;;;;;;3.80;3.50;;;23.80;73.10;;;;;;5088762;28;20931;-61